Time;durP1;ratioP1;P1;durP2;ratioP2;P2;SDS_P1;SDS_P2;PMS_P1;PMS_P2;Temp;Humidity;BMP_temperature;BMP_pressure;BME280_temperature;BME280_humidity;BME280_pressure;Samples;Min_cycle;Max_cycle;Signal;HPM_P1;HPM_P2
2023/02/02 00:01:28;;;;;;;10.85;7.05;;;;;;;1.74;97.46;98973.44;1686826;85;33080;-42
2023/02/02 00:03:55;;;;;;;18.98;8.93;;;;;;;1.73;97.55;98968.65;1685382;85;25847;-42
2023/02/02 00:06:25;;;;;;;18.35;10.93;;;;;;;1.73;97.93;98973.98;1686483;85;25545;-42
2023/02/02 00:08:55;;;;;;;15.78;8.70;;;;;;;1.71;98.31;98964.14;1686694;85;25561;-42
2023/02/02 00:11:24;;;;;;;13.93;7.60;;;;;;;1.70;98.10;98971.09;1711932;83;25207;-41
2023/02/02 00:13:50;;;;;;;13.13;7.05;;;;;;;1.68;98.34;98968.70;1696368;84;27408;-41
2023/02/02 00:16:31;;;;;;;14.78;8.40;;;;;;;1.66;98.78;98959.65;1747596;82;25844;-41
2023/02/02 00:19:02;;;;;;;13.58;7.65;;;;;;;1.66;98.72;98971.64;1747832;82;25392;-42
2023/02/02 00:21:29;;;;;;;12.75;8.08;;;;;;;1.65;98.93;98969.26;1747737;82;25693;-43
2023/02/02 00:23:56;;;;;;;13.03;7.95;;;;;;;1.66;99.60;98970.86;1747771;82;25605;-42
2023/02/02 00:26:24;;;;;;;11.33;7.45;;;;;;;1.64;99.14;98959.69;1747773;82;28049;-40
2023/02/02 00:28:51;;;;;;;15.43;8.85;;;;;;;1.64;99.33;98950.36;1747005;82;25455;-42
2023/02/02 00:31:18;;;;;;;17.80;7.92;;;;;;;1.65;99.38;98947.94;1747664;82;25373;-41
2023/02/02 00:33:47;;;;;;;16.87;8.48;;;;;;;1.67;99.39;98948.47;1747597;82;25717;-41
2023/02/02 00:36:16;;;;;;;14.43;8.35;;;;;;;1.67;99.55;98943.92;1747863;82;32362;-42
2023/02/02 00:38:42;;;;;;;19.23;9.73;;;;;;;1.68;99.60;98951.38;1747923;82;28078;-42
2023/02/02 00:41:09;;;;;;;15.03;8.48;;;;;;;1.71;99.77;98948.70;1747606;82;25660;-42
2023/02/02 00:43:35;;;;;;;15.78;8.45;;;;;;;1.71;99.71;98948.14;1747632;82;25622;-41
2023/02/02 00:46:02;;;;;;;15.18;9.30;;;;;;;1.73;99.86;98943.87;1747580;82;25625;-41
2023/02/02 00:48:28;;;;;;;19.35;8.55;;;;;;;1.72;99.88;98942.27;1747672;82;25448;-41
2023/02/02 00:50:55;;;;;;;18.15;9.73;;;;;;;1.73;99.87;98949.98;1747644;82;27996;-43
2023/02/02 00:53:21;;;;;;;16.67;8.93;;;;;;;1.73;99.83;98946.53;1747512;82;25474;-41
2023/02/02 00:55:47;;;;;;;16.65;8.28;;;;;;;1.73;99.78;98947.32;1747760;82;25372;-41
2023/02/02 00:58:13;;;;;;;15.72;8.75;;;;;;;1.73;100.00;98944.66;1747621;82;25774;-42
2023/02/02 01:00:40;;;;;;;14.28;8.30;;;;;;;1.74;99.96;98942.26;1747636;82;25526;-42
2023/02/02 01:03:06;;;;;;;12.70;8.33;;;;;;;1.74;99.97;98946.25;1716056;82;27207;-45
2023/02/02 01:05:34;;;;;;;14.95;8.65;;;;;;;1.74;100.00;98942.26;1747573;82;25415;-41
2023/02/02 01:08:01;;;;;;;14.25;8.55;;;;;;;1.74;100.00;98942.26;1746581;82;25646;-44
2023/02/02 01:10:28;;;;;;;14.93;9.00;;;;;;;1.72;100.00;98940.42;1746648;81;26348;-45
2023/02/02 01:12:54;;;;;;;15.60;8.35;;;;;;;1.75;100.00;98946.49;1745341;81;25641;-41
2023/02/02 01:15:21;;;;;;;15.50;8.50;;;;;;;1.74;100.00;98944.11;1745244;81;27577;-41
2023/02/02 01:17:47;;;;;;;18.75;8.63;;;;;;;1.72;100.00;98938.27;1745145;80;25630;-41
2023/02/02 01:20:19;;;;;;;19.07;10.03;;;;;;;1.71;99.96;98941.48;1745264;82;25574;-41
2023/02/02 01:22:47;;;;;;;15.88;9.45;;;;;;;1.68;100.00;98947.38;1745246;81;26156;-42
2023/02/02 01:25:14;;;;;;;16.15;8.03;;;;;;;1.64;99.69;98949.03;1745285;82;25613;-41
2023/02/02 01:27:41;;;;;;;12.53;8.43;;;;;;;1.61;99.68;98946.92;1745251;82;27542;-43
2023/02/02 01:30:10;;;;;;;13.95;7.58;;;;;;;1.58;99.50;98950.93;1745110;81;27148;-44
2023/02/02 01:32:36;;;;;;;10.82;7.10;;;;;;;1.52;99.20;98950.74;1745365;82;25609;-42
2023/02/02 01:35:04;;;;;;;10.70;7.05;;;;;;;1.45;98.79;98956.95;1745218;82;25691;-42
2023/02/02 01:37:30;;;;;;;14.25;8.15;;;;;;;1.36;98.39;98956.73;1745256;82;25582;-42
2023/02/02 01:39:56;;;;;;;15.53;6.77;;;;;;;1.26;98.01;98960.30;1745294;81;28050;-42
2023/02/02 01:42:23;;;;;;;15.00;8.18;;;;;;;1.19;97.78;98960.36;1745133;82;25401;-41
2023/02/02 01:45:10;;;;;;;10.30;6.67;;;;;;;1.08;97.41;98951.66;1724064;82;25592;-41
2023/02/02 01:47:45;;;;;;;10.93;6.92;;;;;;;0.98;97.33;98949.86;1745317;81;25950;-41
2023/02/02 01:50:16;;;;;;;11.95;6.53;;;;;;;0.91;97.36;98952.84;1744692;82;25633;-40
2023/02/02 01:52:46;;;;;;;11.70;7.00;;;;;;;0.86;97.52;98953.42;1745296;81;27328;-41
2023/02/02 01:55:18;;;;;;;9.98;6.47;;;;;;;0.77;97.50;98951.89;1745171;81;27274;-42
2023/02/02 01:57:52;;;;;;;11.38;6.10;;;;;;;0.70;97.58;98952.74;1745292;81;25476;-42
2023/02/02 02:00:24;;;;;;;10.30;6.95;;;;;;;0.64;97.63;98955.16;1744185;82;25686;-42
2023/02/02 02:02:57;;;;;;;11.20;7.10;;;;;;;0.58;97.74;98952.27;1745061;82;25626;-43
2023/02/02 02:05:32;;;;;;;11.75;6.37;;;;;;;0.53;97.87;98949.12;1745270;82;27333;-43
2023/02/02 02:08:13;;;;;;;14.05;7.10;;;;;;;0.48;98.12;98948.60;1744386;82;25487;-44
2023/02/02 02:10:40;;;;;;;10.43;6.62;;;;;;;0.44;98.26;98955.52;1735765;82;25632;-42
2023/02/02 02:13:08;;;;;;;12.75;6.90;;;;;;;0.40;98.43;98955.04;1716221;83;25621;-43
2023/02/02 02:19:17;;;;;;;12.05;6.65;;;;;;;0.36;98.66;98960.91;1716256;83;27403;-43
2023/02/02 02:28:54;;;;;;;13.80;7.08;;;;;;;0.33;99.08;98962.77;1716271;83;25755;-42
2023/02/02 02:32:13;;;;;;;10.95;6.75;;;;;;;0.30;99.14;98962.53;1715520;83;25424;-42
2023/02/02 02:35:25;;;;;;;11.33;6.85;;;;;;;0.28;99.36;98962.80;1716463;83;27978;-42
2023/02/02 02:38:21;;;;;;;14.93;7.53;;;;;;;0.25;99.49;98962.55;1716263;83;25574;-42
2023/02/02 02:40:56;;;;;;;11.05;6.70;;;;;;;0.23;99.69;98963.36;1716380;83;25396;-42
2023/02/02 02:43:31;;;;;;;13.25;6.78;;;;;;;0.22;99.92;98961.22;1716292;82;25633;-42
2023/02/02 02:45:57;;;;;;;12.75;6.95;;;;;;;0.23;100.00;98957.50;1716089;83;25405;-42
2023/02/02 02:48:24;;;;;;;11.60;6.95;;;;;;;0.24;100.00;98962.28;1716200;82;27334;-42
2023/02/02 02:50:51;;;;;;;13.08;6.80;;;;;;;0.25;100.00;98960.67;1691878;82;25849;-41
2023/02/02 02:53:23;;;;;;;15.78;7.30;;;;;;;0.26;100.00;98959.63;1716231;82;25413;-41
2023/02/02 02:56:10;;;;;;;13.45;7.22;;;;;;;0.28;100.00;98962.02;1716160;83;25737;-42
2023/02/02 02:58:54;;;;;;;13.28;6.90;;;;;;;0.30;100.00;98961.20;1716203;82;25565;-42
2023/02/02 03:01:39;;;;;;;11.15;7.00;;;;;;;0.31;100.00;98960.14;1716261;83;27344;-43
2023/02/02 03:04:19;;;;;;;16.17;8.30;;;;;;;0.32;100.00;98962.53;1715463;83;25315;-42
2023/02/02 03:07:00;;;;;;;13.13;6.92;;;;;;;0.34;100.00;98964.37;1715831;83;25421;-42
2023/02/02 03:09:33;;;;;;;13.68;6.83;;;;;;;0.35;100.00;98960.62;1715961;82;25641;-43
2023/02/02 03:12:02;;;;;;;9.18;5.78;;;;;;;0.39;100.00;98963.53;1716446;82;25622;-43
2023/02/02 03:14:34;;;;;;;9.93;5.78;;;;;;;0.42;100.00;98966.20;1716402;82;27348;-43
2023/02/02 03:17:00;;;;;;;10.78;6.35;;;;;;;0.44;100.00;98964.84;1716347;83;25559;-44
2023/02/02 03:19:27;;;;;;;9.93;6.17;;;;;;;0.47;100.00;98969.61;1716403;83;25614;-43
2023/02/02 03:21:53;;;;;;;9.30;6.22;;;;;;;0.52;100.00;98966.14;1716341;83;25677;-45
2023/02/02 03:24:19;;;;;;;8.38;5.70;;;;;;;0.55;100.00;98960.27;1716437;82;25565;-45
2023/02/02 03:26:46;;;;;;;10.78;5.80;;;;;;;0.61;100.00;98964.48;1716368;82;27334;-43
2023/02/02 03:29:13;;;;;;;9.28;5.15;;;;;;;0.61;100.00;98956.50;1716384;82;25701;-43
2023/02/02 03:31:40;;;;;;;12.82;5.58;;;;;;;0.70;100.00;98961.52;1716430;82;25625;-44
2023/02/02 03:34:06;;;;;;;9.40;5.45;;;;;;;0.76;100.00;98961.48;1716369;82;25956;-43
2023/02/02 03:36:33;;;;;;;12.40;6.22;;;;;;;0.79;100.00;98964.38;1716457;82;25477;-42
2023/02/02 03:38:59;;;;;;;11.15;6.90;;;;;;;0.84;100.00;98964.34;1716411;83;27477;-42
2023/02/02 03:41:25;;;;;;;16.67;7.45;;;;;;;0.87;100.00;98961.65;1716337;82;25476;-41
2023/02/02 03:43:51;;;;;;;13.32;6.95;;;;;;;0.92;100.00;98961.10;1716380;83;25390;-41
2023/02/02 03:46:17;;;;;;;12.70;6.58;;;;;;;0.97;100.00;98962.13;1716352;83;25660;-41
2023/02/02 03:48:43;;;;;;;14.38;6.83;;;;;;;1.01;100.00;98960.52;1691714;83;25456;-41
2023/02/02 03:51:13;;;;;;;13.95;7.30;;;;;;;1.04;100.00;98960.75;1716404;83;28069;-43
2023/02/02 03:53:48;;;;;;;14.30;6.53;;;;;;;1.08;100.00;98956.98;1716319;82;25694;-43
2023/02/02 03:56:15;;;;;;;16.87;6.97;;;;;;;1.12;100.00;98948.69;1716372;83;25530;-42
2023/02/02 03:58:41;;;;;;;22.40;7.28;;;;;;;1.16;100.00;98956.91;1716420;83;25736;-42
2023/02/02 04:01:12;;;;;;;14.07;6.85;;;;;;;1.21;100.00;98954.20;1691794;82;25404;-44
2023/02/02 04:03:38;;;;;;;15.35;7.58;;;;;;;1.23;100.00;98948.08;1716420;83;27498;-43
2023/02/02 04:06:06;;;;;;;15.23;7.45;;;;;;;1.27;100.00;98949.10;1716296;83;25462;-42
2023/02/02 04:08:33;;;;;;;18.92;7.20;;;;;;;1.30;100.00;98955.99;1716403;83;25486;-43
2023/02/02 04:11:01;;;;;;;14.83;6.92;;;;;;;1.34;100.00;98956.23;1721905;82;27851;-42
2023/02/02 04:13:29;;;;;;;14.03;8.58;;;;;;;1.37;100.00;98949.56;1745460;82;25569;-43
2023/02/02 04:16:01;;;;;;;17.00;10.50;;;;;;;1.39;100.00;98952.19;1745277;81;27351;-43
2023/02/02 04:18:29;;;;;;;17.32;6.42;;;;;;;1.44;100.00;98953.47;1745339;82;25560;-43
2023/02/02 04:21:00;;;;;;;23.35;11.33;;;;;;;1.45;100.00;98953.73;1745371;81;25588;-43
2023/02/02 04:23:29;;;;;;;11.15;6.22;;;;;;;1.48;100.00;98945.19;1745356;82;26250;-43
2023/02/02 04:25:56;;;;;;;21.50;16.48;;;;;;;1.53;100.00;98947.53;1745338;81;25570;-43
2023/02/02 04:28:24;;;;;;;39.88;35.95;;;;;;;1.55;100.00;98949.37;1745308;81;27489;-42
2023/02/02 04:30:54;;;;;;;74.00;68.30;;;;;;;1.57;100.00;98949.91;1745232;81;25681;-43
2023/02/02 04:33:23;;;;;;;20.12;8.85;;;;;;;1.58;100.00;98944.27;1745452;82;25484;-43
2023/02/02 04:35:50;;;;;;;68.42;63.35;;;;;;;1.61;100.00;98953.59;1745252;81;25552;-42
2023/02/02 04:38:17;;;;;;;82.40;76.07;;;;;;;1.62;100.00;98951.19;1745367;82;25629;-43
2023/02/02 04:40:47;;;;;;;84.30;77.92;;;;;;;1.64;100.00;98964.47;1745288;81;27352;-43
2023/02/02 04:43:15;;;;;;;82.37;76.20;;;;;;;1.65;100.00;98954.08;1745253;82;25432;-43
2023/02/02 04:45:42;;;;;;;81.55;75.70;;;;;;;1.67;100.00;98959.13;1745451;81;25437;-43
2023/02/02 04:48:10;;;;;;;84.42;77.55;;;;;;;1.68;100.00;98958.82;1745268;82;25669;-43
2023/02/02 04:50:37;;;;;;;83.12;76.57;;;;;;;1.71;100.00;98954.81;1745292;81;25453;-43
2023/02/02 04:53:05;;;;;;;85.83;79.30;;;;;;;1.73;100.00;98961.98;1745265;80;27216;-45
2023/02/02 04:55:37;;;;;;;81.92;75.90;;;;;;;1.73;100.00;98960.65;1745164;82;25618;-43
2023/02/02 04:58:05;;;;;;;86.32;79.37;;;;;;;1.76;100.00;98957.42;1745455;81;25622;-44
2023/02/02 05:00:31;;;;;;;82.25;75.40;;;;;;;1.78;100.00;98955.27;1745240;82;25622;-43
2023/02/02 05:02:57;;;;;;;91.17;83.33;;;;;;;1.78;100.00;98955.27;1745282;80;25630;-43
2023/02/02 05:05:24;;;;;;;72.95;67.42;;;;;;;1.80;100.00;98961.65;1745326;82;28046;-43
2023/02/02 05:07:50;;;;;;;15.35;8.85;;;;;;;1.81;100.00;98956.59;1745141;81;26074;-43
2023/02/02 05:10:19;;;;;;;23.50;20.45;;;;;;;1.81;100.00;98954.70;1745220;82;25615;-44
2023/02/02 05:12:46;;;;;;;17.48;14.00;;;;;;;1.82;100.00;98952.30;1745110;82;25620;-43
2023/02/02 05:15:12;;;;;;;24.32;20.27;;;;;;;1.83;100.00;98957.09;1745223;81;25442;-43
2023/02/02 05:17:39;;;;;;;11.18;6.25;;;;;;;1.82;100.00;98952.30;1745198;81;27345;-43
2023/02/02 05:20:08;;;;;;;18.10;7.37;;;;;;;1.84;100.00;98957.36;1745114;81;25735;-42
2023/02/02 05:22:34;;;;;;;10.50;4.85;;;;;;;1.84;100.00;98958.14;1745429;82;25587;-46
2023/02/02 05:25:02;;;;;;;16.65;5.95;;;;;;;1.84;100.00;98968.02;1745183;81;25665;-43
2023/02/02 05:27:28;;;;;;;15.70;5.90;;;;;;;1.83;100.00;98971.75;1745305;81;25622;-44
2023/02/02 05:29:55;;;;;;;22.67;6.47;;;;;;;1.83;100.00;98965.09;1745201;81;27327;-42
2023/02/02 05:32:24;;;;;;;24.05;6.10;;;;;;;1.83;100.00;98968.54;1745122;82;25570;-42
2023/02/02 05:34:50;;;;;;;23.70;9.23;;;;;;;1.84;100.00;98976.81;1745178;82;25917;-42
2023/02/02 05:37:16;;;;;;;11.53;4.70;;;;;;;1.84;100.00;98974.69;1745224;82;25672;-42
2023/02/02 05:39:43;;;;;;;11.78;4.85;;;;;;;1.83;100.00;98971.75;1745194;81;25520;-43
2023/02/02 05:42:09;;;;;;;10.53;4.90;;;;;;;1.84;100.00;98979.47;1745204;81;27341;-44
2023/02/02 05:44:35;;;;;;;8.55;3.98;;;;;;;1.85;100.00;98985.59;1745159;82;25448;-42
2023/02/02 05:47:04;;;;;;;18.63;8.10;;;;;;;1.84;100.00;98976.81;1745288;81;27548;-42
2023/02/02 05:49:31;;;;;;;15.40;11.25;;;;;;;1.84;100.00;98982.14;1745431;81;25622;-44
2023/02/02 05:51:59;;;;;;;17.12;3.65;;;;;;;1.85;100.00;98981.59;1745231;81;25562;-46
2023/02/02 05:54:27;;;;;;;16.82;3.62;;;;;;;1.84;100.00;98976.02;1745204;82;27628;-43
2023/02/02 05:56:55;;;;;;;13.58;6.05;;;;;;;1.86;100.00;98986.64;1745069;81;25596;-43
2023/02/02 05:59:24;;;;;;;16.67;4.78;;;;;;;1.86;100.00;98983.98;1745253;81;25461;-43
2023/02/02 06:01:50;;;;;;;13.53;7.25;;;;;;;1.85;100.00;98979.71;1745185;81;25621;-44
2023/02/02 06:04:16;;;;;;;17.90;7.15;;;;;;;1.85;100.00;98977.05;1745227;82;25381;-45
2023/02/02 06:06:46;;;;;;;45.58;41.95;;;;;;;1.86;100.00;98974.64;1745149;82;27319;-42
2023/02/02 06:09:13;;;;;;;63.15;58.55;;;;;;;1.86;100.00;98974.64;1745129;82;25572;-45
2023/02/02 06:11:39;;;;;;;61.48;56.85;;;;;;;1.88;100.00;98989.03;1739893;80;25406;-42
2023/02/02 06:14:07;;;;;;;68.75;63.42;;;;;;;1.86;100.00;98983.98;1716494;83;26316;-43
2023/02/02 06:16:35;;;;;;;13.35;3.52;;;;;;;1.88;100.00;98994.36;1716591;83;25630;-43
2023/02/02 06:19:03;;;;;;;9.78;3.62;;;;;;;1.89;100.00;98990.63;1716531;82;28343;-42
2023/02/02 06:21:32;;;;;;;15.48;3.92;;;;;;;1.90;100.00;98983.42;1716412;83;25828;-42
2023/02/02 06:24:00;;;;;;;8.30;3.27;;;;;;;1.90;100.00;98987.42;1716608;83;25398;-42
2023/02/02 06:26:29;;;;;;;12.73;4.00;;;;;;;1.90;100.00;98988.75;1716730;83;25775;-44
2023/02/02 06:28:57;;;;;;;12.65;4.60;;;;;;;1.89;100.00;98979.97;1716487;83;25525;-43
2023/02/02 06:31:23;;;;;;;8.33;4.50;;;;;;;1.93;100.00;98984.19;1716494;83;27330;-42
2023/02/02 06:33:58;;;;;;;8.60;3.60;;;;;;;1.94;100.00;98985.77;1716377;83;25587;-42
2023/02/02 06:36:27;;;;;;;11.12;4.15;;;;;;;1.94;100.00;98979.91;1716514;83;25560;-43
2023/02/02 06:38:56;;;;;;;12.18;3.62;;;;;;;1.95;100.00;98985.48;1716562;83;25696;-46
2023/02/02 06:41:24;;;;;;;9.73;2.35;;;;;;;1.98;100.00;98988.92;1692446;82;25656;-42
2023/02/02 06:43:52;;;;;;;11.22;3.45;;;;;;;1.98;100.00;98980.92;1716596;83;27238;-42
2023/02/02 06:46:20;;;;;;;9.83;3.83;;;;;;;2.00;100.00;98981.97;1716560;83;25785;-43
2023/02/02 06:48:47;;;;;;;13.50;5.47;;;;;;;2.00;100.00;98981.42;1716639;82;25545;-43
2023/02/02 06:51:16;;;;;;;12.80;3.83;;;;;;;2.03;100.00;98981.41;1716593;81;25624;-44
2023/02/02 06:53:42;;;;;;;12.13;3.80;;;;;;;2.02;100.00;98975.81;1716711;82;25564;-43
2023/02/02 06:56:12;;;;;;;12.60;3.27;;;;;;;2.03;100.00;98982.20;1716594;82;27381;-42
2023/02/02 06:58:41;;;;;;;11.18;4.40;;;;;;;2.03;100.00;98977.41;1716566;83;25591;-43
2023/02/02 07:01:11;;;;;;;10.48;3.37;;;;;;;2.04;100.00;98977.13;1716609;83;25675;-43
2023/02/02 07:03:39;;;;;;;11.05;3.67;;;;;;;2.05;100.00;98977.37;1716699;83;26168;-42
2023/02/02 07:06:27;;;;;;;12.00;4.28;;;;;;;2.07;100.00;98978.97;1716680;83;25418;-43
2023/02/02 07:08:55;;;;;;;13.30;4.40;;;;;;;2.08;100.00;98980.53;1716730;83;27328;-43
2023/02/02 07:11:23;;;;;;;11.03;4.33;;;;;;;2.10;100.00;98982.41;1716536;83;25570;-43
2023/02/02 07:13:50;;;;;;;13.03;4.55;;;;;;;2.10;100.00;98979.73;1716452;82;25378;-41
2023/02/02 07:16:18;;;;;;;10.65;4.28;;;;;;;2.10;100.00;98984.52;1716287;82;25618;-45
2023/02/02 07:18:48;;;;;;;16.82;5.67;;;;;;;2.11;100.00;98981.30;1716434;82;25632;-42
2023/02/02 07:21:20;;;;;;;14.38;4.12;;;;;;;2.11;100.00;98975.97;1716416;83;27908;-40
2023/02/02 07:23:50;;;;;;;13.13;4.92;;;;;;;2.11;100.00;98978.13;1716358;82;25488;-42
2023/02/02 07:26:19;;;;;;;8.50;4.35;;;;;;;2.13;100.00;98980.48;1691633;83;25636;-43
2023/02/02 07:28:46;;;;;;;7.08;3.22;;;;;;;2.14;100.00;98985.53;1715151;83;25701;-42
2023/02/02 07:31:19;;;;;;;14.60;5.22;;;;;;;2.15;100.00;98977.80;1716377;83;25560;-44
2023/02/02 07:33:48;;;;;;;10.63;4.67;;;;;;;2.14;100.00;98978.86;1691947;83;27563;-42
2023/02/02 07:36:19;;;;;;;5.83;3.77;;;;;;;2.12;100.00;98975.69;1715929;83;25745;-42
2023/02/02 07:38:49;;;;;;;12.60;4.53;;;;;;;2.12;100.00;98975.69;1716493;82;25640;-42
2023/02/02 07:41:17;;;;;;;13.50;4.62;;;;;;;2.12;100.00;98980.24;1716390;82;26152;-43
2023/02/02 07:43:47;;;;;;;15.08;4.87;;;;;;;2.12;100.00;98977.58;1716404;82;25395;-43
2023/02/02 07:46:16;;;;;;;9.43;5.03;;;;;;;2.11;100.00;98983.45;1716367;83;27376;-46
2023/02/02 07:48:44;;;;;;;12.73;4.78;;;;;;;2.08;100.00;98979.20;1716367;83;25407;-44
2023/02/02 07:51:16;;;;;;;11.57;4.20;;;;;;;2.07;100.00;98975.75;1716026;82;25832;-42
2023/02/02 07:53:47;;;;;;;19.65;5.97;;;;;;;2.08;100.00;98979.20;1716370;83;25624;-42
2023/02/02 07:56:21;;;;;;;9.25;4.30;;;;;;;2.07;100.00;98977.09;1716421;83;25456;-45
2023/02/02 07:58:54;;;;;;;10.95;5.17;;;;;;;2.07;100.00;98975.75;1716371;83;29524;-43
2023/02/02 08:01:25;;;;;;;13.00;4.53;;;;;;;2.06;100.00;98976.84;1716343;83;25648;-47
2023/02/02 08:03:55;;;;;;;9.38;4.70;;;;;;;2.03;100.00;98980.86;1716413;83;25394;-47
2023/02/02 08:06:30;;;;;;;7.65;3.72;;;;;;;2.04;100.00;98978.98;1716403;82;26229;-46
2023/02/02 08:09:00;;;;;;;11.20;4.87;;;;;;;2.03;100.00;98986.20;1716468;82;25627;-44
2023/02/02 08:11:29;;;;;;;10.70;4.30;;;;;;;2.06;100.00;98990.19;1716423;83;27995;-45
2023/02/02 08:14:00;;;;;;;15.32;5.75;;;;;;;2.04;100.00;98988.31;1716614;81;25936;-43
2023/02/02 08:16:29;;;;;;;9.73;4.53;;;;;;;2.02;100.00;98986.48;1716390;83;25629;-44
2023/02/02 08:18:58;;;;;;;9.50;5.03;;;;;;;2.00;100.00;98989.42;1716489;83;34659;-42
2023/02/02 08:21:26;;;;;;;13.22;5.28;;;;;;;1.98;100.00;98992.14;1716396;82;25642;-42
2023/02/02 08:23:54;;;;;;;11.00;6.22;;;;;;;1.96;100.00;98995.60;1716394;83;27343;-42
2023/02/02 08:26:27;;;;;;;11.55;4.70;;;;;;;1.93;100.00;98992.98;1716265;83;25909;-45
2023/02/02 08:28:59;;;;;;;11.65;6.30;;;;;;;1.93;100.00;98988.98;1716332;83;25436;-44
2023/02/02 08:31:42;;;;;;;8.50;4.22;;;;;;;1.94;100.00;98991.91;1715670;83;25906;-43
2023/02/02 08:34:12;;;;;;;10.63;5.47;;;;;;;1.94;100.00;98989.25;1716417;83;25462;-42
2023/02/02 08:36:40;;;;;;;13.18;5.92;;;;;;;1.93;100.00;98997.52;1716319;83;27335;-41
2023/02/02 08:39:12;;;;;;;12.35;5.95;;;;;;;1.95;100.00;98996.70;1716273;83;27121;-43
2023/02/02 08:41:39;;;;;;;17.48;5.85;;;;;;;1.95;100.00;98992.70;1716395;83;25340;-43
2023/02/02 08:44:11;;;;;;;10.18;5.45;;;;;;;1.96;100.00;99000.94;1716291;83;25597;-42
2023/02/02 08:46:37;;;;;;;9.85;5.58;;;;;;;1.97;100.00;98999.88;1716428;83;25636;-42
2023/02/02 08:49:04;;;;;;;13.00;6.45;;;;;;;1.98;100.00;98990.80;1716290;81;27358;-43
2023/02/02 08:51:30;;;;;;;11.68;6.22;;;;;;;2.00;100.00;98998.77;1716278;83;25681;-44
2023/02/02 08:53:57;;;;;;;13.60;6.95;;;;;;;2.02;100.00;98998.48;1716302;83;25543;-43
2023/02/02 08:56:23;;;;;;;11.45;5.58;;;;;;;2.05;100.00;99006.70;1716349;83;25582;-42
2023/02/02 08:58:57;;;;;;;9.25;5.33;;;;;;;2.07;100.00;99001.64;1716336;83;25619;-42
2023/02/02 09:01:30;;;;;;;13.10;5.70;;;;;;;2.12;100.00;99006.92;1716413;82;27339;-42
2023/02/02 09:04:04;;;;;;;12.18;5.22;;;;;;;2.10;100.00;99000.53;1716232;83;25672;-43
2023/02/02 09:06:40;;;;;;;9.40;5.40;;;;;;;2.11;100.00;99009.31;1716343;82;25666;-46
2023/02/02 09:09:11;;;;;;;9.68;5.58;;;;;;;2.11;100.00;99011.47;1716344;82;25450;-44
2023/02/02 09:11:38;;;;;;;10.43;5.62;;;;;;;2.15;100.00;99009.81;1692180;83;25655;-43
2023/02/02 09:14:05;;;;;;;9.35;6.25;;;;;;;2.18;100.00;99005.77;1712271;82;28045;-43
2023/02/02 09:16:34;;;;;;;10.80;5.80;;;;;;;2.22;100.00;99010.25;1710833;83;25544;-43
2023/02/02 09:19:01;;;;;;;13.20;5.75;;;;;;;2.24;100.00;99004.64;1711101;83;25568;-43
2023/02/02 09:21:28;;;;;;;11.50;6.62;;;;;;;2.28;100.00;99008.86;1710923;83;25673;-42
2023/02/02 09:23:54;;;;;;;10.43;5.80;;;;;;;2.29;100.00;99004.58;1710988;83;25469;-43
2023/02/02 09:26:27;;;;;;;11.43;6.00;;;;;;;2.32;100.00;99005.89;1710976;83;27425;-42
2023/02/02 09:29:01;;;;;;;10.03;5.72;;;;;;;2.37;100.00;99007.16;1710907;83;25411;-44
2023/02/02 09:31:30;;;;;;;10.35;5.17;;;;;;;2.43;100.00;99013.49;1710952;83;25454;-43
2023/02/02 09:34:02;;;;;;;8.98;5.72;;;;;;;2.43;100.00;99010.82;1711048;83;35176;-44
2023/02/02 09:36:29;;;;;;;9.13;4.95;;;;;;;2.45;100.00;99017.19;1710972;83;27239;-44
2023/02/02 09:38:57;;;;;;;12.53;6.58;;;;;;;2.47;100.00;99009.70;1710939;83;27126;-43
2023/02/02 09:41:41;;;;;;;14.03;5.65;;;;;;;2.52;100.00;99021.66;1688660;83;25726;-43
2023/02/02 09:44:35;;;;;;;8.98;5.00;;;;;;;2.51;100.00;99020.60;1711073;83;25652;-44
2023/02/02 09:47:33;;;;;;;11.93;5.22;;;;;;;2.51;100.00;99022.72;1710575;83;25648;-44
2023/02/02 09:50:28;;;;;;;9.05;4.60;;;;;;;2.49;100.00;99030.78;1710793;83;25646;-43
2023/02/02 09:53:06;;;;;;;5.92;4.45;;;;;;;2.47;100.00;99028.91;1710644;83;27359;-43
2023/02/02 09:55:46;;;;;;;13.78;5.15;;;;;;;2.46;100.00;99038.02;1710816;83;25555;-43
2023/02/02 09:58:27;;;;;;;8.60;4.78;;;;;;;2.49;100.00;99039.57;1710994;83;25600;-44
2023/02/02 10:01:17;;;;;;;7.05;4.42;;;;;;;2.50;100.00;99043.03;1710944;83;25612;-44
2023/02/02 10:04:01;;;;;;;8.10;4.97;;;;;;;2.45;100.00;99044.42;1710611;83;25594;-42
2023/02/02 10:06:50;;;;;;;8.55;4.90;;;;;;;2.43;100.00;99042.85;1688890;83;27437;-43
2023/02/02 10:09:44;;;;;;;6.80;3.55;;;;;;;2.43;100.00;99051.38;1711021;83;25437;-43
2023/02/02 10:12:36;;;;;;;8.05;4.78;;;;;;;2.45;100.00;99047.87;1710831;83;25584;-44
2023/02/02 10:15:22;;;;;;;8.13;5.50;;;;;;;2.48;100.00;99056.66;1745219;82;26246;-44
2023/02/02 10:18:03;;;;;;;8.05;5.35;;;;;;;2.48;100.00;99055.87;1745308;81;25600;-43
2023/02/02 10:20:53;;;;;;;8.85;5.67;;;;;;;2.51;100.00;99058.76;1724010;82;27313;-44
2023/02/02 10:23:28;;;;;;;9.53;5.45;;;;;;;2.52;100.00;99061.70;1745184;82;25694;-44
2023/02/02 10:26:20;;;;;;;9.53;5.90;;;;;;;2.55;100.00;99069.11;1742343;81;25614;-47
2023/02/02 10:29:19;;;;;;;11.35;5.40;;;;;;;2.57;100.00;99065.64;1745238;82;26304;-45
2023/02/02 10:32:07;;;;;;;11.33;5.58;;;;;;;2.60;100.00;99065.59;1745083;82;25625;-42
2023/02/02 10:34:44;;;;;;;9.75;6.12;;;;;;;2.63;100.00;99074.38;1745305;82;26921;-45
2023/02/02 10:37:55;;;;;;;9.43;5.95;;;;;;;2.66;100.00;99073.02;1724002;82;25410;-44
2023/02/02 10:40:52;;;;;;;9.05;6.28;;;;;;;2.68;100.00;99079.65;1745245;82;25508;-43
2023/02/02 10:43:46;;;;;;;8.85;5.62;;;;;;;2.71;100.00;99082.30;1744924;82;25681;-44
2023/02/02 10:46:44;;;;;;;9.23;5.53;;;;;;;2.71;100.00;99079.63;1745285;82;25420;-43
2023/02/02 10:49:31;;;;;;;9.70;6.25;;;;;;;2.75;100.00;99088.65;1744846;82;27934;-43
2023/02/02 10:52:17;;;;;;;9.63;6.65;;;;;;;2.77;100.00;99091.82;1745158;81;25469;-42
2023/02/02 10:55:07;;;;;;;11.38;6.53;;;;;;;2.80;100.00;99099.27;1745281;82;25615;-42
2023/02/02 10:57:56;;;;;;;8.98;6.22;;;;;;;2.81;100.00;99100.87;1745146;82;25671;-43
2023/02/02 11:00:46;;;;;;;11.10;6.07;;;;;;;2.86;100.00;99102.14;1745532;82;25574;-43
2023/02/02 11:03:15;;;;;;;10.20;6.47;;;;;;;2.88;100.00;99108.50;1745235;82;28044;-42
2023/02/02 11:08:39;;;;;;;10.00;7.20;;;;;;;2.94;100.00;99114.05;1745250;82;25420;-41
2023/02/02 11:11:19;;;;;;;9.88;6.25;;;;;;;2.93;100.00;99123.95;1745350;82;25639;-41
2023/02/02 11:14:10;;;;;;;10.32;6.62;;;;;;;2.91;100.00;99121.29;1735136;82;25600;-42
2023/02/02 11:16:41;;;;;;;12.30;6.90;;;;;;;2.90;100.00;99128.52;1716348;83;27486;-42
2023/02/02 11:19:22;;;;;;;10.60;6.60;;;;;;;2.90;100.00;99135.20;1715695;83;25628;-43
2023/02/02 11:21:55;;;;;;;8.48;4.97;;;;;;;2.91;100.00;99142.14;1716238;83;25611;-43
2023/02/02 11:24:39;;;;;;;10.55;6.22;;;;;;;2.94;100.00;99148.22;1716090;82;25693;-42
2023/02/02 11:27:23;;;;;;;8.70;4.67;;;;;;;2.94;100.00;99154.11;1691883;82;25416;-42
2023/02/02 11:29:59;;;;;;;6.70;4.53;;;;;;;2.88;100.00;99162.73;1716269;82;27340;-42
2023/02/02 11:32:32;;;;;;;7.60;4.53;;;;;;;2.76;100.00;99156.46;1716315;82;25539;-43
2023/02/02 11:35:15;;;;;;;8.80;5.20;;;;;;;2.70;100.00;99158.92;1716471;82;25548;-43
2023/02/02 11:38:11;;;;;;;7.67;4.05;;;;;;;2.66;100.00;99154.45;1716357;82;25633;-42
2023/02/02 11:40:54;;;;;;;6.33;4.80;;;;;;;2.63;100.00;99165.70;1714121;83;25677;-42
2023/02/02 11:43:40;;;;;;;8.18;5.25;;;;;;;2.60;100.00;99173.17;1714153;83;27333;-42
2023/02/02 11:46:18;;;;;;;8.30;5.80;;;;;;;2.64;100.00;99175.28;1714016;83;25485;-41
2023/02/02 11:49:01;;;;;;;9.83;6.37;;;;;;;2.66;100.00;99176.60;1710725;83;25892;-40
2023/02/02 11:51:31;;;;;;;9.13;5.75;;;;;;;2.68;100.00;99177.11;1714132;83;26426;-42
2023/02/02 11:54:23;;;;;;;9.73;5.55;;;;;;;2.72;100.00;99176.00;1714371;83;25444;-42
2023/02/02 11:56:54;;;;;;;10.90;6.62;;;;;;;2.75;100.00;99174.89;1714068;83;27410;-42
2023/02/02 11:59:44;;;;;;;12.15;7.25;;;;;;;2.76;100.00;99185.05;1714089;83;25625;-42
2023/02/02 12:02:23;;;;;;;;;;;;;;;2.78;100.00;99182.34;1716687;83;25661;-43
2023/02/02 12:05:04;;;;;;;8.13;5.37;;;;;;;2.88;100.00;99189.45;1714256;83;26315;-43
2023/02/02 12:07:33;;;;;;;17.70;8.43;;;;;;;2.93;100.00;99189.39;1711843;83;25664;-45